Time;durP1;ratioP1;P1;durP2;ratioP2;P2;SDS_P1;SDS_P2;PMS_P1;PMS_P2;Temp;Humidity;BMP_temperature;BMP_pressure;BME280_temperature;BME280_humidity;BME280_pressure;Samples;Min_cycle;Max_cycle;Signal;HPM_P1;HPM_P2
2021/12/04 00:04:07;;;;;;;137.87;83.17;;;;;;;7.19;100.00;99989.81;1902527;74;86042;-74
2021/12/04 00:09:57;;;;;;;101.43;74.23;;;;;;;7.10;100.00;99985.44;1983882;71;39619;-72
2021/12/04 00:15:37;;;;;;;122.17;72.83;;;;;;;7.31;100.00;99977.34;1847524;76;86323;-74
2021/12/04 00:21:22;;;;;;;119.10;73.13;;;;;;;7.15;100.00;99982.66;1880950;74;86222;-74
2021/12/04 00:27:06;;;;;;;116.20;71.33;;;;;;;7.18;100.00;99966.92;1926100;73;86132;-74
2021/12/04 00:32:57;;;;;;;98.40;65.23;;;;;;;7.16;100.00;99962.78;1981300;71;39770;-72
2021/12/04 00:50:44;;;;;;;92.67;56.17;;;;;;;7.22;100.00;99954.75;1926036;71;39847;-72
2021/12/04 00:56:28;;;;;;;73.77;51.20;;;;;;;7.19;100.00;99959.44;1875671;75;86774;-74
2021/12/04 01:02:12;;;;;;;69.13;52.10;;;;;;;7.17;100.00;99961.68;1867469;75;86252;-72
2021/12/04 01:11:04;;;;;;;58.57;48.90;;;;;;;7.26;100.00;99989.80;1894382;75;86199;-73
2021/12/04 01:13:36;;;;;;;74.47;48.37;;;;;;;7.22;100.00;100005.29;1798807;77;934594;-73
2021/12/04 01:16:07;;;;;;;53.80;47.93;;;;;;;7.20;100.00;100003.36;1806160;77;938731;-73
2021/12/04 01:18:37;;;;;;;51.15;45.40;;;;;;;7.24;100.00;100001.67;1758504;78;938060;-73
2021/12/04 01:21:07;;;;;;;55.53;47.43;;;;;;;7.36;100.00;100006.85;1751248;78;938642;-74
2021/12/04 01:23:37;;;;;;;58.10;48.13;;;;;;;7.41;100.00;100002.69;1734209;78;938758;-73
2021/12/04 01:26:07;;;;;;;65.20;48.23;;;;;;;7.39;100.00;100001.33;1770201;79;938983;-74
2021/12/04 01:28:38;;;;;;;76.27;47.57;;;;;;;7.33;100.00;99988.92;1758668;79;937919;-74
2021/12/04 01:31:08;;;;;;;58.47;44.90;;;;;;;7.36;100.00;99989.48;1738717;81;935743;-73
2021/12/04 01:33:38;;;;;;;74.35;47.53;;;;;;;7.43;100.00;99989.98;1727280;80;936643;-74
2021/12/04 01:36:09;;;;;;;62.63;46.60;;;;;;;7.49;100.00;99984.67;1793947;77;936875;-74
2021/12/04 01:38:39;;;;;;;66.67;46.67;;;;;;;7.44;100.00;99983.35;1797010;77;938623;-73
2021/12/04 01:41:10;;;;;;;93.13;48.53;;;;;;;7.42;100.00;99979.48;1820193;78;935766;-73
2021/12/04 01:43:41;;;;;;;71.28;44.60;;;;;;;7.33;100.00;99983.40;1801358;77;935687;-73
2021/12/04 01:46:11;;;;;;;83.50;47.33;;;;;;;7.33;100.00;99975.11;1806052;78;935857;-74
2021/12/04 01:48:42;;;;;;;68.72;47.65;;;;;;;7.33;100.00;99975.11;1794418;78;936553;-74
2021/12/04 01:51:12;;;;;;;83.87;49.03;;;;;;;7.30;100.00;99966.58;1806082;77;935881;-74
2021/12/04 01:53:42;;;;;;;70.77;46.83;;;;;;;7.19;100.00;99958.89;1794204;77;936718;-73
2021/12/04 01:56:12;;;;;;;60.13;47.20;;;;;;;7.22;100.00;99957.52;1776591;77;936619;-73
2021/12/04 01:58:44;;;;;;;67.08;46.83;;;;;;;7.25;100.00;99959.14;1783662;78;936543;-73
2021/12/04 02:01:14;;;;;;;74.67;47.43;;;;;;;7.14;100.00;99954.80;1795452;79;936511;-73
2021/12/04 02:03:44;;;;;;;49.33;44.23;;;;;;;7.14;100.00;99954.80;1783599;77;936526;-74
2021/12/04 02:09:28;;;;;;;52.30;46.90;;;;;;;7.16;100.00;99953.11;1891594;74;85094;-74
2021/12/04 02:15:16;;;;;;;55.10;47.43;;;;;;;7.18;100.00;99957.81;1865400;76;86284;-73
2021/12/04 02:21:00;;;;;;;62.03;47.57;;;;;;;7.06;100.00;99941.56;1918418;72;86761;-73
2021/12/04 02:26:45;;;;;;;53.50;48.00;;;;;;;7.03;100.00;99930.27;1942153;71;39393;-73
2021/12/04 02:32:30;;;;;;;54.57;48.43;;;;;;;6.98;100.00;99942.71;1908917;74;85282;-73
2021/12/04 02:38:16;;;;;;;53.37;47.87;;;;;;;6.93;100.00;99938.62;1871685;75;86199;-73
2021/12/04 02:44:02;;;;;;;53.30;48.07;;;;;;;6.87;100.00;99939.19;1919310;74;86492;-73
2021/12/04 02:49:48;;;;;;;54.07;48.83;;;;;;;6.95;100.00;99934.45;1922434;71;39664;-74
2021/12/04 02:55:34;;;;;;;58.60;50.10;;;;;;;6.90;100.00;99925.36;1948331;72;86284;-73
2021/12/04 03:01:19;;;;;;;55.07;49.63;;;;;;;6.85;100.00;99927.04;1903683;74;86838;-74
2021/12/04 03:07:04;;;;;;;54.40;49.40;;;;;;;6.69;100.00;99916.36;1948820;72;86801;-73
2021/12/04 03:12:47;;;;;;;56.83;51.10;;;;;;;6.78;100.00;99876.86;1985749;71;39627;-73
2021/12/04 03:18:32;;;;;;;56.07;50.40;;;;;;;6.71;100.00;99872.77;1961391;70;86741;-74
2021/12/04 03:24:18;;;;;;;56.67;51.03;;;;;;;6.76;100.00;99883.20;1872369;74;86852;-73
2021/12/04 03:30:06;;;;;;;59.07;53.30;;;;;;;6.55;100.00;99869.23;1913999;74;86540;-72
2021/12/04 03:42:01;;;;;;;57.80;52.00;;;;;;;6.68;100.00;99863.65;1915458;73;86163;-73
2021/12/04 03:47:48;;;;;;;60.33;53.97;;;;;;;6.58;100.00;99849.92;1947672;71;39524;-74
2021/12/04 03:53:31;;;;;;;59.73;53.33;;;;;;;6.64;100.00;99848.77;1833609;76;86413;-73
2021/12/04 03:59:15;;;;;;;67.23;55.37;;;;;;;6.79;100.00;99837.67;1882863;75;86311;-75
2021/12/04 04:04:59;;;;;;;62.67;54.83;;;;;;;6.63;100.00;99817.59;1944481;73;86311;-73
2021/12/04 04:10:43;;;;;;;60.90;54.63;;;;;;;6.69;100.00;99813.70;1978039;71;39601;-74
2021/12/04 04:16:28;;;;;;;59.37;53.33;;;;;;;6.93;100.00;99831.77;1874150;74;86568;-75
2021/12/04 04:22:12;;;;;;;61.00;54.80;;;;;;;6.95;100.00;99831.48;1881722;74;86665;-75
2021/12/04 04:27:55;;;;;;;62.80;56.60;;;;;;;7.02;100.00;99825.91;1907809;72;86576;-73
2021/12/04 04:33:42;;;;;;;63.70;57.20;;;;;;;6.93;100.00;99825.44;1800540;78;86676;-73
2021/12/04 04:39:52;;;;;;;61.20;55.03;;;;;;;6.89;100.00;99807.80;1892504;74;86406;-74
2021/12/04 04:57:45;;;;;;;64.13;57.63;;;;;;;6.80;100.00;99819.42;1877997;73;86555;-74
2021/12/04 05:15:37;;;;;;;58.70;53.00;;;;;;;7.13;100.00;99838.55;1879894;75;86512;-74
2021/12/04 05:21:25;;;;;;;56.57;51.20;;;;;;;7.12;100.00;99829.98;1881331;74;86562;-73
2021/12/04 05:27:11;;;;;;;58.30;52.67;;;;;;;7.07;100.00;99830.02;1910919;74;86162;-74
2021/12/04 05:32:56;;;;;;;59.87;54.17;;;;;;;7.05;100.00;99830.88;1913517;74;86456;-74
2021/12/04 05:38:40;;;;;;;57.50;52.10;;;;;;;7.16;100.00;99843.48;1801282;78;86774;-73
2021/12/04 05:44:26;;;;;;;57.43;52.07;;;;;;;7.36;100.00;99838.94;1799821;78;86808;-74
2021/12/04 05:50:20;;;;;;;58.97;53.27;;;;;;;7.24;100.00;99819.39;1937792;71;86699;-73
2021/12/04 05:55:58;;;;;;;59.47;53.70;;;;;;;7.10;100.00;99819.77;1943162;73;85459;-74
2021/12/04 06:01:43;;;;;;;56.43;50.83;;;;;;;7.37;100.00;99850.23;1980837;71;39487;-73
2021/12/04 06:07:31;;;;;;;57.73;52.47;;;;;;;7.55;100.00;99841.23;1839535;76;86316;-74
2021/12/04 06:13:15;;;;;;;59.13;53.27;;;;;;;7.87;100.00;99848.97;1882420;75;85581;-73
2021/12/04 06:19:10;;;;;;;56.90;52.03;;;;;;;8.03;100.00;99868.42;1906153;72;85524;-72
2021/12/04 06:24:51;;;;;;;55.10;49.83;;;;;;;7.90;100.00;99827.64;1981836;71;39559;-75
2021/12/04 06:30:38;;;;;;;55.80;50.20;;;;;;;8.03;100.00;99854.59;1837244;76;86619;-73
2021/12/04 06:36:25;;;;;;;56.13;51.00;;;;;;;8.02;100.00;99868.98;1807545;77;86563;-72
2021/12/04 06:42:09;;;;;;;56.13;51.23;;;;;;;8.03;100.00;99851.28;1912637;73;85826;-73
2021/12/04 06:47:56;;;;;;;59.07;54.07;;;;;;;7.96;100.00;99833.39;1983447;71;40064;-73
2021/12/04 06:53:43;;;;;;;55.63;51.03;;;;;;;7.94;100.00;99879.30;1805779;78;86521;-73
2021/12/04 06:59:29;;;;;;;56.97;52.43;;;;;;;7.91;100.00;99885.41;1885113;74;86288;-72
2021/12/04 07:05:12;;;;;;;57.90;53.50;;;;;;;7.84;100.00;99893.20;1791731;79;86710;-73
2021/12/04 07:10:54;;;;;;;57.70;53.23;;;;;;;7.86;100.00;99882.70;1818401;78;86717;-74
2021/12/04 07:16:39;;;;;;;58.80;54.33;;;;;;;7.81;100.00;99895.73;1800915;78;86628;-76
2021/12/04 07:22:23;;;;;;;58.17;53.67;;;;;;;7.71;100.00;99898.02;1799489;78;86327;-74
2021/12/04 07:28:07;;;;;;;56.33;52.13;;;;;;;7.65;100.00;99893.66;1928280;73;86200;-74
2021/12/04 07:33:54;;;;;;;57.33;52.60;;;;;;;7.64;100.00;99914.95;1977137;71;39584;-75
2021/12/04 07:39:38;;;;;;;55.83;51.70;;;;;;;7.58;100.00;99917.47;1827036;76;86715;-76
2021/12/04 07:45:22;;;;;;;57.87;53.77;;;;;;;7.51;100.00;99935.49;1806274;78;86244;-73
2021/12/04 07:51:06;;;;;;;59.20;55.20;;;;;;;7.42;100.00;99937.21;1915891;74;86095;-75
2021/12/04 07:56:50;;;;;;;55.80;51.70;;;;;;;7.41;100.00;99931.41;1972031;71;39658;-77
2021/12/04 08:02:35;;;;;;;58.20;54.10;;;;;;;7.27;100.00;99947.82;1830187;76;86546;-78
2021/12/04 08:08:20;;;;;;;62.50;58.20;;;;;;;7.20;100.00;99956.41;1795876;79;86352;-73
2021/12/04 08:14:03;;;;;;;57.33;53.43;;;;;;;7.07;100.00;99972.21;1941711;71;86622;-76
2021/12/04 08:19:49;;;;;;;55.73;51.83;;;;;;;7.07;100.00;99974.97;1943670;71;39565;-73
2021/12/04 08:25:33;;;;;;;54.70;51.20;;;;;;;7.05;100.00;99981.34;1946178;72;86424;-77
2021/12/04 08:31:20;;;;;;;55.63;51.70;;;;;;;6.92;100.00;99976.98;1876720;75;86187;-78
2021/12/04 08:37:05;;;;;;;57.37;53.47;;;;;;;6.82;100.00;99985.58;1936478;73;86075;-79
2021/12/04 08:42:49;;;;;;;52.07;48.17;;;;;;;6.72;100.00;99992.50;1984210;71;39488;-74
2021/12/04 08:48:34;;;;;;;54.87;50.80;;;;;;;6.74;100.00;100006.86;1844643;76;86308;-73
2021/12/04 08:54:19;;;;;;;55.27;51.47;;;;;;;6.78;100.00;100014.02;1884996;73;86523;-77
2021/12/04 09:00:03;;;;;;;53.73;49.97;;;;;;;6.85;100.00;100018.67;1924132;73;86522;-75
2021/12/04 09:08:54;;;;;;;51.20;47.87;;;;;;;6.93;100.00;100012.57;1977081;72;86311;-75
2021/12/04 09:11:28;;;;;;;52.03;48.43;;;;;;;6.88;100.00;100020.89;1868655;74;934840;-75
2021/12/04 09:13:58;;;;;;;54.83;50.83;;;;;;;6.92;100.00;100021.16;1931484;72;938008;-72
2021/12/04 09:16:29;;;;;;;50.70;47.10;;;;;;;6.93;100.00;100014.53;1933075;72;936831;-72
2021/12/04 09:18:59;;;;;;;50.63;47.37;;;;;;;6.93;100.00;100022.81;1932395;72;938877;-75
2021/12/04 09:21:31;;;;;;;52.90;49.40;;;;;;;6.91;100.00;100016.19;1930034;72;938784;-73
2021/12/04 09:24:06;;;;;;;52.53;48.93;;;;;;;6.93;100.00;100023.61;1931772;72;938756;-73
2021/12/04 09:26:45;;;;;;;51.27;47.93;;;;;;;6.98;100.00;100013.11;1921014;72;939050;-75
2021/12/04 09:29:45;;;;;;;52.65;49.08;;;;;;;6.98;100.00;100008.41;1796836;76;938040;-75
2021/12/04 09:36:00;;;;;;;51.93;48.53;;;;;;;7.08;100.00;100007.00;1882886;74;86432;-72
2021/12/04 10:00:02;;;;;;;53.50;49.67;;;;;;;7.27;100.00;100017.67;1891261;74;86308;-73
2021/12/04 10:11:58;;;;;;;53.97;50.27;;;;;;;7.33;100.00;100010.19;1859109;76;85898;-76
2021/12/04 10:17:48;;;;;;;51.13;47.50;;;;;;;7.35;100.00;99995.55;1846844;75;86937;-78
2021/12/04 10:23:48;;;;;;;52.10;48.80;;;;;;;7.31;100.00;99982.88;1836372;76;86484;-75
2021/12/04 10:35:34;;;;;;;49.17;45.87;;;;;;;7.50;100.00;99973.34;1839692;76;86507;-73
2021/12/04 10:41:18;;;;;;;45.87;42.87;;;;;;;7.51;100.00;99962.58;1879891;73;85588;-74
2021/12/04 10:47:07;;;;;;;45.30;42.60;;;;;;;7.55;100.00;99952.59;1923410;73;86378;-74
2021/12/04 10:52:57;;;;;;;45.40;42.63;;;;;;;7.64;100.00;99944.52;1978444;71;39825;-74
2021/12/04 10:59:14;;;;;;;45.67;42.63;;;;;;;7.81;100.00;99939.41;1889985;74;86160;-73
2021/12/04 11:04:49;;;;;;;43.53;40.93;;;;;;;7.81;100.00;99927.52;1984035;71;39629;-74
2021/12/04 11:23:06;;;;;;;41.53;39.13;;;;;;;8.01;100.00;99910.18;1981099;71;39618;-75
2021/12/04 11:35:42;;;;;;;40.03;37.73;;;;;;;8.12;100.00;99898.48;1978716;71;39675;-75
2021/12/04 11:47:08;;;;;;;38.10;35.93;;;;;;;8.22;100.00;99895.58;1904872;74;86551;-74
2021/12/04 11:52:55;;;;;;;40.43;37.90;;;;;;;8.13;100.00;99878.80;1983178;71;39541;-74
2021/12/04 11:58:45;;;;;;;41.20;38.87;;;;;;;8.49;100.00;99870.14;1822219;77;85247;-74
2021/12/04 12:04:43;;;;;;;38.73;36.63;;;;;;;8.39;100.00;99878.55;1983303;71;39682;-73
2021/12/04 12:10:28;;;;;;;40.43;38.43;;;;;;;8.43;100.00;99867.98;1880695;74;86214;-72
2021/12/04 12:16:16;;;;;;;38.27;35.97;;;;;;;8.33;100.00;99851.52;1873197;74;86491;-73
2021/12/04 12:22:09;;;;;;;38.67;36.70;;;;;;;8.39;100.00;99853.09;1927007;71;86322;-73
2021/12/04 12:31:47;;;;;;;40.00;37.80;;;;;;;8.59;100.00;99849.27;1937866;71;40138;-71
2021/12/04 12:34:00;;;;;;;38.43;36.40;;;;;;;8.45;100.00;99842.80;1921792;71;40130;-73
2021/12/04 12:39:58;;;;;;;34.27;32.27;;;;;;;8.58;100.00;99846.23;1982198;71;39679;-74
2021/12/04 12:45:56;;;;;;;33.43;31.83;;;;;;;8.48;100.00;99838.05;1982532;71;39665;-74
2021/12/04 12:51:41;;;;;;;34.27;32.37;;;;;;;8.59;100.00;99865.31;1985383;71;39617;-74
2021/12/04 12:57:28;;;;;;;35.60;33.60;;;;;;;8.81;100.00;99863.92;1797238;78;86128;-73
2021/12/04 13:15:37;;;;;;;36.67;34.87;;;;;;;8.77;100.00;99835.98;1806427;78;86617;-73
2021/12/04 13:21:32;;;;;;;34.43;32.63;;;;;;;8.76;100.00;99836.30;1849450;75;86132;-72
2021/12/04 13:33:08;;;;;;;32.27;30.00;;;;;;;8.71;100.00;99837.75;1902421;74;85634;-73
2021/12/04 13:38:56;;;;;;;33.20;31.20;;;;;;;8.70;100.00;99817.55;1983319;71;40231;-73
2021/12/04 13:44:41;;;;;;;33.20;31.40;;;;;;;8.57;100.00;99832.94;1986101;71;39723;-74
2021/12/04 13:50:45;;;;;;;31.97;30.13;;;;;;;8.53;100.00;99807.54;1884601;74;86328;-73
2021/12/04 13:56:34;;;;;;;33.80;31.97;;;;;;;8.57;100.00;99817.72;1834892;76;86361;-72
2021/12/04 14:02:25;;;;;;;29.90;28.50;;;;;;;8.91;100.00;99833.30;1897374;73;86104;-74
2021/12/04 14:08:14;;;;;;;27.37;25.63;;;;;;;8.87;100.00;99817.86;1817546;77;86358;-74
2021/12/04 14:13:56;;;;;;;31.20;29.50;;;;;;;8.84;100.00;99820.41;1912466;72;85673;-74
2021/12/04 14:19:43;;;;;;;30.00;28.10;;;;;;;8.79;100.00;99816.31;1977924;71;39545;-73
2021/12/04 14:25:30;;;;;;;28.17;26.60;;;;;;;8.74;100.00;99806.69;1834727;76;86520;-73
2021/12/04 14:31:23;;;;;;;29.33;27.67;;;;;;;8.85;100.00;99819.30;1877985;75;86263;-73
2021/12/04 14:37:12;;;;;;;27.17;25.57;;;;;;;8.79;100.00;99828.22;1921172;72;86273;-75
2021/12/04 14:42:55;;;;;;;29.20;27.23;;;;;;;8.77;100.00;99817.98;1921071;74;86598;-73
2021/12/04 14:48:44;;;;;;;29.23;27.53;;;;;;;8.62;100.00;99813.51;1891068;74;87004;-72
2021/12/04 14:54:32;;;;;;;28.80;26.83;;;;;;;8.54;100.00;99814.17;1825777;76;86179;-72
2021/12/04 15:00:19;;;;;;;28.17;26.73;;;;;;;8.57;100.00;99830.73;1882697;74;86402;-72
2021/12/04 15:06:12;;;;;;;25.87;24.43;;;;;;;8.56;100.00;99833.23;1921090;72;86291;-73
2021/12/04 15:11:54;;;;;;;27.37;25.80;;;;;;;8.48;100.00;99825.59;1957770;71;39710;-72
2021/12/04 15:17:42;;;;;;;27.67;25.80;;;;;;;8.40;100.00;99833.17;1802007;77;86364;-72
2021/12/04 15:23:30;;;;;;;28.13;26.57;;;;;;;8.26;100.00;99834.98;1882641;74;86668;-72
2021/12/04 15:29:20;;;;;;;27.73;25.93;;;;;;;8.34;100.00;99846.81;1872306;73;86474;-73
2021/12/04 15:35:25;;;;;;;27.43;25.73;;;;;;;8.23;100.00;99858.52;1903505;74;86091;-73
2021/12/04 15:41:08;;;;;;;26.73;25.20;;;;;;;8.10;100.00;99853.12;1917226;74;85636;-73
2021/12/04 15:46:57;;;;;;;27.93;26.23;;;;;;;7.98;100.00;99853.27;1981300;71;39747;-74
2021/12/04 15:53:00;;;;;;;26.30;24.73;;;;;;;7.96;100.00;99853.55;1840311;76;86281;-73
2021/12/04 15:58:48;;;;;;;28.43;26.53;;;;;;;7.92;100.00;99848.89;1972968;71;40222;-74
2021/12/04 16:04:34;;;;;;;27.33;25.67;;;;;;;7.85;100.00;99856.16;1944917;72;86595;-74
2021/12/04 16:10:21;;;;;;;27.63;25.93;;;;;;;7.81;100.00;99859.80;1870305;74;86499;-74
2021/12/04 16:16:14;;;;;;;26.63;24.97;;;;;;;7.78;100.00;99868.95;1898439;74;86256;-74
2021/12/04 16:22:01;;;;;;;27.27;25.73;;;;;;;7.68;100.00;99874.56;1940734;73;86541;-75
2021/12/04 16:27:58;;;;;;;28.53;26.67;;;;;;;7.55;100.00;99875.78;1984344;71;39671;-74
2021/12/04 16:33:44;;;;;;;27.07;25.57;;;;;;;7.59;100.00;99885.14;1971899;72;86614;-73
2021/12/04 16:39:25;;;;;;;26.97;25.33;;;;;;;7.61;100.00;99869.94;1891775;74;86341;-73
2021/12/04 16:45:13;;;;;;;25.90;24.33;;;;;;;7.57;100.00;99868.83;1930623;73;86809;-74
2021/12/04 16:57:26;;;;;;;29.23;27.20;;;;;;;7.44;100.00;99891.63;1907306;72;86015;-75
2021/12/04 17:03:08;;;;;;;31.67;29.50;;;;;;;7.41;100.00;99876.98;1863958;73;86409;-73
2021/12/04 17:08:51;;;;;;;35.97;33.20;;;;;;;7.35;100.00;99873.19;1974597;71;40246;-74
2021/12/04 17:14:37;;;;;;;37.73;34.90;;;;;;;7.29;100.00;99873.22;1906849;74;86440;-73
2021/12/04 17:20:23;;;;;;;32.20;30.10;;;;;;;7.21;100.00;99864.16;1811238;77;86502;-74
2021/12/04 17:26:08;;;;;;;35.47;32.70;;;;;;;7.19;100.00;99857.26;1926215;73;86170;-72
2021/12/04 17:31:52;;;;;;;39.00;36.30;;;;;;;7.09;100.00;99862.88;1971883;71;40219;-73
2021/12/04 17:37:38;;;;;;;36.10;33.50;;;;;;;7.05;100.00;99865.39;1953823;72;86051;-73
2021/12/04 17:43:24;;;;;;;35.57;33.07;;;;;;;7.04;100.00;99869.25;1799311;78;86458;-75
2021/12/04 17:49:08;;;;;;;35.77;33.27;;;;;;;7.04;100.00;99880.84;1912526;72;86484;-73
2021/12/04 17:54:53;;;;;;;35.33;33.03;;;;;;;7.08;100.00;99891.59;1975852;71;39803;-71
2021/12/04 18:00:41;;;;;;;36.43;34.13;;;;;;;7.00;100.00;99887.50;1825804;75;86787;-73
2021/12/04 18:06:27;;;;;;;38.03;35.57;;;;;;;7.02;100.00;99898.23;1893704;74;86317;-73
2021/12/04 18:12:13;;;;;;;44.83;41.50;;;;;;;6.92;100.00;99889.48;1854129;76;86397;-73
2021/12/04 18:17:59;;;;;;;41.13;38.37;;;;;;;6.87;100.00;99886.75;1908400;74;85430;-74
2021/12/04 18:23:44;;;;;;;39.20;36.47;;;;;;;6.74;100.00;99876.33;1981512;71;39418;-72
2021/12/04 18:29:29;;;;;;;39.33;36.83;;;;;;;6.73;100.00;99874.67;1847250;76;86516;-73
2021/12/04 18:35:16;;;;;;;38.73;36.33;;;;;;;6.72;100.00;99886.80;1865688;75;86385;-73
2021/12/04 18:41:01;;;;;;;36.90;34.63;;;;;;;6.68;100.00;99877.45;1939438;73;86230;-74
2021/12/04 18:46:46;;;;;;;37.87;35.70;;;;;;;6.67;100.00;99886.86;1976494;71;39699;-72
2021/12/04 18:52:30;;;;;;;38.83;36.50;;;;;;;6.71;100.00;99879.11;1812733;76;86728;-72
2021/12/04 18:58:15;;;;;;;40.43;37.83;;;;;;;6.70;100.00;99889.04;1879449;75;86697;-73
2021/12/04 19:03:59;;;;;;;40.27;37.53;;;;;;;6.63;100.00;99885.19;1917185;73;86452;-72
2021/12/04 19:09:42;;;;;;;41.27;38.77;;;;;;;6.66;100.00;99904.52;1973521;71;39560;-74
2021/12/04 19:15:26;;;;;;;43.30;40.80;;;;;;;6.66;100.00;99894.85;1874113;74;86195;-73
2021/12/04 19:21:11;;;;;;;42.10;39.40;;;;;;;6.57;100.00;99891.86;1850188;76;86681;-75
2021/12/04 19:26:56;;;;;;;44.60;41.70;;;;;;;6.60;100.00;99894.59;1937935;72;86664;-73
2021/12/04 19:32:44;;;;;;;41.93;39.70;;;;;;;6.59;100.00;99879.17;1889324;74;85799;-75
2021/12/04 19:50:39;;;;;;;40.77;38.60;;;;;;;6.67;100.00;99886.86;1828306;75;85608;-74
2021/12/04 19:59:41;;;;;;;40.97;38.70;;;;;;;6.69;100.00;99871.66;1975610;71;39795;-72
2021/12/04 20:05:56;;;;;;;40.73;38.57;;;;;;;6.66;100.00;99875.54;1880672;74;86379;-74
2021/12/04 20:17:33;;;;;;;42.37;40.10;;;;;;;6.72;100.00;99848.17;1839509;76;86674;-72
2021/12/04 20:23:23;;;;;;;42.33;40.10;;;;;;;6.67;100.00;99844.09;1900158;73;86636;-72
2021/12/04 20:29:20;;;;;;;43.27;40.70;;;;;;;6.71;100.00;99845.17;1909506;73;86559;-75
2021/12/04 21:53:55;;;;;;;41.73;39.23;;;;;;;7.05;100.00;99861.80;1818056;77;86285;-76
2021/12/04 22:11:53;;;;;;;50.20;47.00;;;;;;;7.12;100.00;99878.31;1985100;71;39667;-70
2021/12/04 22:24:11;;;;;;;50.83;47.57;;;;;;;7.00;100.00;99904.06;1973298;71;39559;-69
2021/12/04 22:59:55;;;;;;;53.43;50.13;;;;;;;6.99;100.00;99945.20;1912073;72;86570;-73
2021/12/04 23:11:50;;;;;;;55.97;52.17;;;;;;;6.92;100.00;99962.63;1892293;74;86276;-72
2021/12/04 23:17:47;;;;;;;57.07;53.17;;;;;;;6.83;100.00;99972.61;1850988;75;86619;-72
2021/12/04 23:35:39;;;;;;;56.40;52.70;;;;;;;6.58;100.00;99980.97;1885959;74;86379;-71
2021/12/04 23:41:48;;;;;;;55.53;51.53;;;;;;;6.40;100.00;99987.36;1878001;75;86450;-71
2021/12/04 23:54:11;;;;;;;57.33;53.47;;;;;;;6.30;100.00;99966.68;1844954;76;85606;-71
